Betania, Brazil
Current Conditions -  °F | °C
As of 10:00 AM on Tuesday 21 Oct 2014 (Local Time) from SBJU Reporting Station
Broken Clouds Broken Clouds  
Wind Chill: 84°   Ceiling: 2300
Heat Index: 88°   Visibility: 6mi
Dew Point: 70°   Wind: 6mph
Humidity: 62%   Direction: 180°S
Pressure: 30.06"   Gusts: NA
Location:  8.27°S, 38.03°W
Report Text: SBJU 211300Z 18005KT 9999 BKN023 29/21 Q1018
Loading
Personal Weather Stations






























Interactive Weather Map
Tropical Storm Tracking
New forecast layout! Learn more

10-Day Weather Forecast

Advertisements
Track Severe Weather on mobile